createdAt,value
2022-12-09T00:04:30.020Z,95894.13
2022-12-09T00:09:23.719Z,95891.53
2022-12-09T00:14:17.272Z,95875.13
2022-12-09T00:19:13.874Z,95883.44
2022-12-09T00:24:14.219Z,95896.13
2022-12-09T00:29:08.099Z,95900.69
2022-12-09T00:34:04.021Z,95883.75
2022-12-09T00:38:59.454Z,95868.56
2022-12-09T00:43:54.879Z,95876.09
2022-12-09T00:48:48.903Z,95884.19
2022-12-09T00:53:43.103Z,95891.44
2022-12-09T00:58:36.830Z,95885.34
2022-12-09T01:03:32.016Z,95883.88
2022-12-09T01:08:26.123Z,95901.69
2022-12-09T01:13:40.720Z,95889.84
2022-12-09T01:18:45.239Z,95878.56
2022-12-09T01:23:38.911Z,95871.66
2022-12-09T01:28:33.034Z,95877.66
2022-12-09T01:33:26.785Z,95875.06
2022-12-09T01:38:22.008Z,95859.25
2022-12-09T01:43:19.324Z,95848.44
2022-12-09T01:48:15.905Z,95839.50
2022-12-09T01:53:09.949Z,95828.91
2022-12-09T01:58:06.496Z,95843.34
2022-12-09T02:03:08.659Z,95831.44
2022-12-09T02:08:02.764Z,95824.81
2022-12-09T02:13:11.121Z,95805.09
2022-12-09T02:18:15.048Z,95803.13
2022-12-09T02:23:19.943Z,95791.03
2022-12-09T02:28:43.581Z,95789.66
2022-12-09T02:33:47.468Z,95778.50
2022-12-09T02:38:44.418Z,95771.31
2022-12-09T02:43:49.852Z,95771.09
2022-12-09T02:48:50.780Z,95766.41
2022-12-09T02:53:52.253Z,95753.59
2022-12-09T02:58:45.758Z,95731.25
2022-12-09T03:03:39.385Z,95723.28
2022-12-09T03:08:46.096Z,95722.44
2022-12-09T03:13:57.138Z,95718.69
2022-12-09T03:19:00.733Z,95716.09
2022-12-09T03:23:58.058Z,95719.06
2022-12-09T03:28:56.651Z,95715.56
2022-12-09T03:33:54.929Z,95697.00
2022-12-09T03:38:50.341Z,95700.19
2022-12-09T03:43:53.105Z,95678.19
2022-12-09T03:48:48.361Z,95680.97
2022-12-09T03:53:50.393Z,95673.94
2022-12-09T03:58:47.577Z,95668.97
2022-12-09T04:03:59.854Z,95655.22
2022-12-09T04:08:57.992Z,95642.88
2022-12-09T04:13:54.149Z,95643.41
2022-12-09T04:18:47.706Z,95643.34
2022-12-09T04:23:43.581Z,95629.06
2022-12-09T04:28:37.122Z,95628.78
2022-12-09T04:33:32.508Z,95619.91
2022-12-09T04:38:25.999Z,95605.63
2022-12-09T04:43:21.094Z,95595.09
2022-12-09T04:48:14.603Z,95586.69
2022-12-09T04:53:55.915Z,95587.09
2022-12-09T04:58:51.961Z,95585.44
2022-12-09T05:03:51.011Z,95590.84
2022-12-09T05:08:45.353Z,95595.09
2022-12-09T05:13:39.113Z,95592.06
2022-12-09T05:18:53.403Z,95578.56
2022-12-09T05:23:48.546Z,95578.13
2022-12-09T05:28:42.333Z,95571.47
2022-12-09T05:33:56.472Z,95577.25
2022-12-09T05:38:53.496Z,95577.75
2022-12-09T05:43:47.751Z,95566.81
2022-12-09T05:48:41.701Z,95574.25
2022-12-09T05:53:55.762Z,95562.91
2022-12-09T05:58:51.585Z,95568.13
2022-12-09T06:03:47.444Z,95575.41
2022-12-09T06:08:43.675Z,95584.81
2022-12-09T06:13:37.257Z,95576.25
2022-12-09T06:18:32.342Z,95573.16
2022-12-09T06:23:26.937Z,95569.34
2022-12-09T06:28:20.413Z,95573.41
2022-12-09T06:33:45.040Z,95568.78
2022-12-09T06:38:29.019Z,95563.44
2022-12-09T06:43:23.036Z,95554.53
2022-12-09T06:48:16.671Z,95558.56
2022-12-09T06:53:10.344Z,95547.03
2022-12-09T06:58:05.462Z,95551.63
2022-12-09T07:02:59.378Z,95557.09
2022-12-09T07:07:52.535Z,95551.81
2022-12-09T07:12:47.027Z,95548.41
2022-12-09T07:17:42.208Z,95540.22
2022-12-09T07:22:36.386Z,95551.19
2022-12-09T07:32:36.707Z,95550.06
2022-12-09T07:37:32.351Z,95535.31
2022-12-09T07:42:25.772Z,95543.34
2022-12-09T07:47:19.707Z,95544.88
2022-12-09T07:52:13.987Z,95542.25
2022-12-09T07:57:08.878Z,95543.19
2022-12-09T08:02:06.535Z,95533.69
2022-12-09T08:07:00.661Z,95529.44
2022-12-09T08:11:54.260Z,95528.47
2022-12-09T08:17:24.545Z,95523.84
2022-12-09T08:22:17.979Z,95522.47
2022-12-09T08:27:11.336Z,95528.28
2022-12-09T08:32:07.047Z,95517.50
2022-12-09T08:37:03.833Z,95517.84
2022-12-09T08:41:57.645Z,95511.06
2022-12-09T09:14:58.592Z,95524.59
2022-12-09T09:19:54.233Z,95515.94
2022-12-09T09:24:56.222Z,95506.38
2022-12-09T09:29:50.235Z,95496.84
2022-12-09T09:34:45.932Z,95505.81
2022-12-09T09:39:42.606Z,95508.28
2022-12-09T09:44:41.174Z,95507.69
2022-12-09T09:49:43.175Z,95506.47
2022-12-09T09:54:37.911Z,95498.16
2022-12-09T09:59:49.913Z,95485.78
2022-12-09T10:05:04.643Z,95487.84
2022-12-09T10:10:12.522Z,95467.34
2022-12-09T10:15:14.365Z,95472.94
2022-12-09T10:20:14.557Z,95466.81
2022-12-09T10:25:22.059Z,95466.91
2022-12-09T10:30:20.754Z,95463.66
2022-12-09T10:35:18.671Z,95452.38
2022-12-09T10:40:27.143Z,95452.84
2022-12-09T10:45:23.895Z,95436.56
2022-12-09T10:50:31.680Z,95432.06
2022-12-09T10:55:32.962Z,95429.78
2022-12-09T11:00:34.455Z,95420.47
2022-12-09T11:20:59.419Z,95414.16
2022-12-09T11:25:57.718Z,95402.59
2022-12-09T12:02:27.063Z,95377.03
2022-12-09T12:07:33.489Z,95374.03
2022-12-09T12:12:42.647Z,95375.59
2022-12-09T12:17:44.092Z,95377.56
2022-12-09T12:23:02.902Z,95377.25
2022-12-09T12:28:32.534Z,95381.19
2022-12-09T12:34:08.216Z,95371.69
2022-12-09T12:39:14.760Z,95367.94
2022-12-09T13:30:16.964Z,95391.72
2022-12-09T13:35:18.922Z,95389.88
2022-12-09T13:45:33.038Z,95393.00
2022-12-09T13:50:57.157Z,95386.56
2022-12-09T13:56:02.964Z,95395.88
2022-12-09T14:01:10.422Z,95399.41
2022-12-09T14:06:22.900Z,95409.09
2022-12-09T14:11:48.175Z,95401.44
2022-12-09T14:16:43.825Z,95408.91
2022-12-09T14:21:37.261Z,95402.38
2022-12-09T14:26:38.749Z,95403.09
2022-12-09T14:32:01.332Z,95417.03
2022-12-09T14:37:12.460Z,95418.72
2022-12-09T14:42:12.572Z,95426.78
2022-12-09T14:47:22.242Z,95451.50
2022-12-09T14:52:23.349Z,95446.50
2022-12-09T14:57:25.782Z,95449.81
2022-12-09T15:02:25.031Z,95456.44
2022-12-09T15:07:21.505Z,95459.97
2022-12-09T15:12:15.000Z,95465.47
2022-12-09T15:17:09.695Z,95463.19
2022-12-09T15:22:04.610Z,95474.97
2022-12-09T15:27:01.595Z,95475.59
2022-12-09T15:31:55.273Z,95486.97
2022-12-09T15:36:54.525Z,95496.16
2022-12-09T15:42:10.456Z,95495.44
2022-12-09T15:47:10.456Z,95498.09
2022-12-09T15:52:08.505Z,95492.84
2022-12-09T15:57:07.246Z,95501.22
2022-12-09T16:02:02.196Z,95503.53
2022-12-09T16:06:57.020Z,95489.19
2022-12-09T16:11:54.101Z,95493.31
2022-12-09T16:16:51.863Z,95494.06
2022-12-09T16:21:45.231Z,95494.06
2022-12-09T16:26:41.262Z,95502.13
2022-12-09T16:45:25.515Z,95522.28
2022-12-09T16:50:19.157Z,95525.84
2022-12-09T16:55:22.186Z,95526.91
2022-12-09T17:01:15.983Z,95529.78
2022-12-09T17:06:16.409Z,95531.28
2022-12-09T17:11:09.972Z,95535.63
2022-12-09T17:16:03.733Z,95536.00
2022-12-09T17:21:02.672Z,95540.91
2022-12-09T17:26:02.539Z,95537.69
2022-12-09T17:30:56.008Z,95527.44
2022-12-09T17:35:49.424Z,95541.44
2022-12-09T17:45:51.528Z,95530.47
2022-12-09T17:50:45.589Z,95529.44
2022-12-09T17:55:39.818Z,95543.19
2022-12-09T18:00:33.789Z,95555.34
2022-12-09T18:15:42.310Z,95557.81
2022-12-09T18:20:38.558Z,95556.53
2022-12-09T18:25:32.136Z,95545.78
2022-12-09T18:30:25.581Z,95545.50
2022-12-09T18:35:20.613Z,95573.84
2022-12-09T18:40:21.148Z,95572.22
2022-12-09T18:45:15.154Z,95573.84
2022-12-09T18:50:10.121Z,95571.06
2022-12-09T18:55:06.830Z,95567.69
2022-12-09T19:00:00.276Z,95566.91
2022-12-09T19:04:53.642Z,95571.00
2022-12-09T19:09:47.080Z,95582.97
2022-12-09T19:14:41.778Z,95577.09
2022-12-09T19:19:35.300Z,95569.22
2022-12-09T19:24:32.748Z,95577.66
2022-12-09T19:29:28.130Z,95570.75
2022-12-09T19:34:25.544Z,95567.66
2022-12-09T19:39:23.490Z,95574.78
2022-12-09T19:44:37.333Z,95578.59
2022-12-09T19:49:34.657Z,95587.78
2022-12-09T19:54:29.785Z,95580.75
2022-12-09T19:59:23.204Z,95586.63
2022-12-09T20:04:47.527Z,95590.91
2022-12-09T20:09:35.375Z,95592.56
2022-12-09T20:14:28.702Z,95588.75
2022-12-09T20:19:22.072Z,95596.63
2022-12-09T20:24:15.396Z,95599.63
2022-12-09T20:29:12.493Z,95597.34
2022-12-09T20:34:09.512Z,95601.97
2022-12-09T20:39:06.111Z,95598.94
2022-12-09T20:44:01.455Z,95608.06
2022-12-09T20:48:56.920Z,95616.09
2022-12-09T20:53:51.558Z,95615.16
2022-12-09T20:58:46.725Z,95614.50
2022-12-09T21:03:40.585Z,95609.69
2022-12-09T21:08:35.807Z,95619.53
2022-12-09T21:13:29.229Z,95609.06
2022-12-09T21:18:22.563Z,95607.53
2022-12-09T21:23:33.476Z,95613.63
2022-12-09T21:28:30.095Z,95628.88
2022-12-09T21:33:23.737Z,95624.50
2022-12-09T21:38:17.019Z,95624.69
2022-12-09T21:43:10.372Z,95632.63
2022-12-09T21:48:05.360Z,95631.00
2022-12-09T21:52:58.846Z,95640.50
2022-12-09T21:57:52.221Z,95627.72
2022-12-09T22:02:47.310Z,95634.34
2022-12-09T22:07:42.510Z,95639.13
2022-12-09T22:12:37.031Z,95642.22
2022-12-09T22:17:30.593Z,95644.16
2022-12-09T22:23:14.514Z,95649.34
2022-12-09T22:28:08.083Z,95649.72
2022-12-09T22:33:01.643Z,95646.50
2022-12-09T22:37:58.048Z,95652.31
2022-12-09T22:42:53.885Z,95668.56
2022-12-09T22:47:47.236Z,95649.22
2022-12-09T22:52:40.639Z,95655.31
2022-12-09T22:57:34.023Z,95663.59
2022-12-09T23:02:29.126Z,95669.16
2022-12-09T23:07:22.574Z,95666.44
2022-12-09T23:12:15.835Z,95664.56
2022-12-09T23:17:09.189Z,95673.41
2022-12-09T23:22:04.255Z,95676.31
2022-12-09T23:26:57.849Z,95680.03
2022-12-09T23:31:51.294Z,95682.81
2022-12-09T23:36:46.349Z,95672.47
2022-12-09T23:41:43.277Z,95665.81
2022-12-09T23:46:37.116Z,95666.56
2022-12-09T23:51:33.060Z,95668.22
2022-12-09T23:56:28.860Z,95660.38
